sensor_id;sensor_type;location;lat;lon;timestamp;temperature;humidity
290;DHT22;13193;48.874;9.086;2022-07-05T00:00:50;15.40;1.00
290;DHT22;13193;48.874;9.086;2022-07-05T00:03:16;15.40;1.00
290;DHT22;13193;48.874;9.086;2022-07-05T00:05:42;15.40;1.00
290;DHT22;13193;48.874;9.086;2022-07-05T00:08:07;15.30;1.00
290;DHT22;13193;48.874;9.086;2022-07-05T00:10:34;15.30;1.00
290;DHT22;13193;48.874;9.086;2022-07-05T00:13:00;15.20;1.00
290;DHT22;13193;48.874;9.086;2022-07-05T00:15:26;15.20;1.00
290;DHT22;13193;48.874;9.086;2022-07-05T00:17:52;15.20;1.00
290;DHT22;13193;48.874;9.086;2022-07-05T00:20:18;15.10;1.00
290;DHT22;13193;48.874;9.086;2022-07-05T00:22:44;15.10;1.00
290;DHT22;13193;48.874;9.086;2022-07-05T00:25:09;15.00;1.00
290;DHT22;13193;48.874;9.086;2022-07-05T00:27:35;14.90;1.00
290;DHT22;13193;48.874;9.086;2022-07-05T00:30:01;14.90;1.00
290;DHT22;13193;48.874;9.086;2022-07-05T00:32:27;14.90;1.00
290;DHT22;13193;48.874;9.086;2022-07-05T00:34:52;14.80;1.00
290;DHT22;13193;48.874;9.086;2022-07-05T00:37:18;14.80;1.00
290;DHT22;13193;48.874;9.086;2022-07-05T00:39:44;14.80;1.00
290;DHT22;13193;48.874;9.086;2022-07-05T00:42:09;14.70;1.00
290;DHT22;13193;48.874;9.086;2022-07-05T00:44:38;14.70;1.00
290;DHT22;13193;48.874;9.086;2022-07-05T00:47:05;14.60;1.00
290;DHT22;13193;48.874;9.086;2022-07-05T00:49:32;14.60;1.00
290;DHT22;13193;48.874;9.086;2022-07-05T00:51:59;14.60;1.00
290;DHT22;13193;48.874;9.086;2022-07-05T00:54:32;14.60;1.00
290;DHT22;13193;48.874;9.086;2022-07-05T00:56:58;14.60;1.00
290;DHT22;13193;48.874;9.086;2022-07-05T00:59:24;14.50;1.00
290;DHT22;13193;48.874;9.086;2022-07-05T01:01:50;14.50;1.00
290;DHT22;13193;48.874;9.086;2022-07-05T01:04:34;14.40;1.00
290;DHT22;13193;48.874;9.086;2022-07-05T01:07:01;14.40;1.00
290;DHT22;13193;48.874;9.086;2022-07-05T01:09:29;14.40;1.00
290;DHT22;13193;48.874;9.086;2022-07-05T01:11:55;14.30;1.00
290;DHT22;13193;48.874;9.086;2022-07-05T01:14:23;14.30;1.00
290;DHT22;13193;48.874;9.086;2022-07-05T01:16:49;14.30;1.00
290;DHT22;13193;48.874;9.086;2022-07-05T01:19:15;14.20;1.00
290;DHT22;13193;48.874;9.086;2022-07-05T01:21:43;14.20;1.00
290;DHT22;13193;48.874;9.086;2022-07-05T01:24:13;14.10;1.00
290;DHT22;13193;48.874;9.086;2022-07-05T01:26:40;14.10;1.00
290;DHT22;13193;48.874;9.086;2022-07-05T01:29:08;14.10;1.00
290;DHT22;13193;48.874;9.086;2022-07-05T01:31:37;14.10;1.00
290;DHT22;13193;48.874;9.086;2022-07-05T01:34:04;14.00;1.00
290;DHT22;13193;48.874;9.086;2022-07-05T01:36:29;14.00;1.00
290;DHT22;13193;48.874;9.086;2022-07-05T01:38:55;14.00;1.00
290;DHT22;13193;48.874;9.086;2022-07-05T01:41:21;14.00;1.00
290;DHT22;13193;48.874;9.086;2022-07-05T01:43:46;13.90;1.00
290;DHT22;13193;48.874;9.086;2022-07-05T01:46:12;13.90;1.00
290;DHT22;13193;48.874;9.086;2022-07-05T01:48:41;13.80;1.00
290;DHT22;13193;48.874;9.086;2022-07-05T01:51:20;13.80;1.00
290;DHT22;13193;48.874;9.086;2022-07-05T01:53:50;13.70;1.00
290;DHT22;13193;48.874;9.086;2022-07-05T01:56:17;13.70;1.00
290;DHT22;13193;48.874;9.086;2022-07-05T01:58:43;13.60;1.00
290;DHT22;13193;48.874;9.086;2022-07-05T02:01:09;13.60;1.00
290;DHT22;13193;48.874;9.086;2022-07-05T02:03:36;13.60;1.00
290;DHT22;13193;48.874;9.086;2022-07-05T02:06:01;13.60;1.00
290;DHT22;13193;48.874;9.086;2022-07-05T02:08:30;13.50;1.00
290;DHT22;13193;48.874;9.086;2022-07-05T02:10:56;13.50;1.00
290;DHT22;13193;48.874;9.086;2022-07-05T02:13:22;13.50;1.00
290;DHT22;13193;48.874;9.086;2022-07-05T02:15:48;13.50;1.00
290;DHT22;13193;48.874;9.086;2022-07-05T02:18:14;13.40;1.00
290;DHT22;13193;48.874;9.086;2022-07-05T02:20:40;13.40;1.00
290;DHT22;13193;48.874;9.086;2022-07-05T02:23:07;13.40;1.00
290;DHT22;13193;48.874;9.086;2022-07-05T02:25:33;13.30;1.00
290;DHT22;13193;48.874;9.086;2022-07-05T02:27:58;13.30;1.00
290;DHT22;13193;48.874;9.086;2022-07-05T02:30:25;13.30;1.00
290;DHT22;13193;48.874;9.086;2022-07-05T02:32:50;13.20;1.00
290;DHT22;13193;48.874;9.086;2022-07-05T02:35:16;13.20;1.00
290;DHT22;13193;48.874;9.086;2022-07-05T02:37:42;13.20;1.00
290;DHT22;13193;48.874;9.086;2022-07-05T02:40:09;13.20;1.00
290;DHT22;13193;48.874;9.086;2022-07-05T02:42:35;13.10;1.00
290;DHT22;13193;48.874;9.086;2022-07-05T02:45:01;13.10;1.00
290;DHT22;13193;48.874;9.086;2022-07-05T02:47:30;13.10;1.00
290;DHT22;13193;48.874;9.086;2022-07-05T02:49:57;13.10;1.00
290;DHT22;13193;48.874;9.086;2022-07-05T02:52:23;13.00;1.00
290;DHT22;13193;48.874;9.086;2022-07-05T02:54:50;13.00;1.00
290;DHT22;13193;48.874;9.086;2022-07-05T02:57:15;13.00;1.00
290;DHT22;13193;48.874;9.086;2022-07-05T02:59:41;13.00;1.00
290;DHT22;13193;48.874;9.086;2022-07-05T03:02:07;12.90;1.00
290;DHT22;13193;48.874;9.086;2022-07-05T03:04:32;12.90;1.00
290;DHT22;13193;48.874;9.086;2022-07-05T03:06:58;12.90;1.00
290;DHT22;13193;48.874;9.086;2022-07-05T03:09:23;12.90;1.00
290;DHT22;13193;48.874;9.086;2022-07-05T03:11:49;12.90;1.00
290;DHT22;13193;48.874;9.086;2022-07-05T03:14:15;12.80;1.00
290;DHT22;13193;48.874;9.086;2022-07-05T03:16:40;12.80;1.00
290;DHT22;13193;48.874;9.086;2022-07-05T03:19:07;12.80;1.00
290;DHT22;13193;48.874;9.086;2022-07-05T03:21:33;12.80;1.00
290;DHT22;13193;48.874;9.086;2022-07-05T03:23:59;12.70;1.00
290;DHT22;13193;48.874;9.086;2022-07-05T03:26:25;12.80;1.00
290;DHT22;13193;48.874;9.086;2022-07-05T03:28:50;12.80;1.00
290;DHT22;13193;48.874;9.086;2022-07-05T03:31:16;12.70;1.00
290;DHT22;13193;48.874;9.086;2022-07-05T03:33:42;12.70;1.00
290;DHT22;13193;48.874;9.086;2022-07-05T03:36:07;12.70;1.00
290;DHT22;13193;48.874;9.086;2022-07-05T03:38:33;12.70;1.00
290;DHT22;13193;48.874;9.086;2022-07-05T03:40:59;12.70;1.00
290;DHT22;13193;48.874;9.086;2022-07-05T03:43:25;12.70;1.00
290;DHT22;13193;48.874;9.086;2022-07-05T03:45:50;12.70;1.00
290;DHT22;13193;48.874;9.086;2022-07-05T03:48:16;12.80;1.00
290;DHT22;13193;48.874;9.086;2022-07-05T03:50:42;12.70;1.00
290;DHT22;13193;48.874;9.086;2022-07-05T03:53:07;12.80;1.00
290;DHT22;13193;48.874;9.086;2022-07-05T03:55:33;12.80;1.00
290;DHT22;13193;48.874;9.086;2022-07-05T03:57:58;12.80;1.00
290;DHT22;13193;48.874;9.086;2022-07-05T04:00:24;12.80;1.00
290;DHT22;13193;48.874;9.086;2022-07-05T04:02:50;12.90;1.00
290;DHT22;13193;48.874;9.086;2022-07-05T04:05:15;12.90;1.00
290;DHT22;13193;48.874;9.086;2022-07-05T04:07:52;13.00;1.00
290;DHT22;13193;48.874;9.086;2022-07-05T04:10:18;13.00;1.00
290;DHT22;13193;48.874;9.086;2022-07-05T04:12:45;13.10;1.00
290;DHT22;13193;48.874;9.086;2022-07-05T04:15:12;13.10;1.00
290;DHT22;13193;48.874;9.086;2022-07-05T04:17:52;13.20;1.00
290;DHT22;13193;48.874;9.086;2022-07-05T04:20:19;13.30;1.00
290;DHT22;13193;48.874;9.086;2022-07-05T04:22:46;13.40;1.00
290;DHT22;13193;48.874;9.086;2022-07-05T04:25:12;13.50;1.00
290;DHT22;13193;48.874;9.086;2022-07-05T04:27:52;13.60;1.00
290;DHT22;13193;48.874;9.086;2022-07-05T04:30:22;13.70;1.00
290;DHT22;13193;48.874;9.086;2022-07-05T04:32:48;13.80;1.00
290;DHT22;13193;48.874;9.086;2022-07-05T04:35:15;14.00;1.00
290;DHT22;13193;48.874;9.086;2022-07-05T04:37:42;14.10;1.00
290;DHT22;13193;48.874;9.086;2022-07-05T04:40:18;14.10;1.00
290;DHT22;13193;48.874;9.086;2022-07-05T04:42:44;14.30;1.00
290;DHT22;13193;48.874;9.086;2022-07-05T04:45:10;14.40;1.00
290;DHT22;13193;48.874;9.086;2022-07-05T04:47:37;14.50;1.00
290;DHT22;13193;48.874;9.086;2022-07-05T04:50:04;14.60;1.00
290;DHT22;13193;48.874;9.086;2022-07-05T04:52:30;14.70;1.00
290;DHT22;13193;48.874;9.086;2022-07-05T04:54:57;14.90;1.00
290;DHT22;13193;48.874;9.086;2022-07-05T04:57:24;15.10;1.00
290;DHT22;13193;48.874;9.086;2022-07-05T04:59:50;15.40;1.00
290;DHT22;13193;48.874;9.086;2022-07-05T05:02:15;15.60;1.00
290;DHT22;13193;48.874;9.086;2022-07-05T05:04:41;15.90;1.00
290;DHT22;13193;48.874;9.086;2022-07-05T05:07:07;16.30;1.00
290;DHT22;13193;48.874;9.086;2022-07-05T05:09:34;16.70;1.00
290;DHT22;13193;48.874;9.086;2022-07-05T05:12:00;17.20;1.00
290;DHT22;13193;48.874;9.086;2022-07-05T05:14:28;18.00;1.00
290;DHT22;13193;48.874;9.086;2022-07-05T05:16:53;18.90;1.00
290;DHT22;13193;48.874;9.086;2022-07-05T05:19:19;20.00;1.00
290;DHT22;13193;48.874;9.086;2022-07-05T05:21:45;21.10;1.00
290;DHT22;13193;48.874;9.086;2022-07-05T05:24:10;22.30;1.00
290;DHT22;13193;48.874;9.086;2022-07-05T05:26:36;23.30;1.00
290;DHT22;13193;48.874;9.086;2022-07-05T05:29:01;24.30;1.00
290;DHT22;13193;48.874;9.086;2022-07-05T05:31:33;25.20;1.00
290;DHT22;13193;48.874;9.086;2022-07-05T05:33:59;26.10;1.00
290;DHT22;13193;48.874;9.086;2022-07-05T05:36:25;26.70;1.00
290;DHT22;13193;48.874;9.086;2022-07-05T05:38:51;27.10;1.00
290;DHT22;13193;48.874;9.086;2022-07-05T05:41:17;27.60;1.00
290;DHT22;13193;48.874;9.086;2022-07-05T05:43:43;28.10;1.00
290;DHT22;13193;48.874;9.086;2022-07-05T05:46:09;28.50;1.00
290;DHT22;13193;48.874;9.086;2022-07-05T05:48:35;28.80;1.00
290;DHT22;13193;48.874;9.086;2022-07-05T05:51:00;29.10;1.00
290;DHT22;13193;48.874;9.086;2022-07-05T05:53:28;29.30;1.00
290;DHT22;13193;48.874;9.086;2022-07-05T05:55:54;29.50;1.00
290;DHT22;13193;48.874;9.086;2022-07-05T05:58:21;29.60;1.00
290;DHT22;13193;48.874;9.086;2022-07-05T06:00:52;29.80;1.00
290;DHT22;13193;48.874;9.086;2022-07-05T06:03:24;29.80;1.00
290;DHT22;13193;48.874;9.086;2022-07-05T06:05:51;29.70;1.00
290;DHT22;13193;48.874;9.086;2022-07-05T06:08:20;29.60;1.00
290;DHT22;13193;48.874;9.086;2022-07-05T06:11:02;29.60;1.00
290;DHT22;13193;48.874;9.086;2022-07-05T06:13:33;29.40;1.00
290;DHT22;13193;48.874;9.086;2022-07-05T06:16:01;29.40;1.00
290;DHT22;13193;48.874;9.086;2022-07-05T06:18:27;29.30;1.00
290;DHT22;13193;48.874;9.086;2022-07-05T06:20:56;29.20;1.00
290;DHT22;13193;48.874;9.086;2022-07-05T06:23:27;29.10;1.00
290;DHT22;13193;48.874;9.086;2022-07-05T06:25:54;29.00;1.00
290;DHT22;13193;48.874;9.086;2022-07-05T06:28:37;28.90;1.00
290;DHT22;13193;48.874;9.086;2022-07-05T06:31:03;28.80;1.00
290;DHT22;13193;48.874;9.086;2022-07-05T06:33:29;28.60;1.00
290;DHT22;13193;48.874;9.086;2022-07-05T06:35:54;28.20;1.00
290;DHT22;13193;48.874;9.086;2022-07-05T06:38:20;27.80;1.00
290;DHT22;13193;48.874;9.086;2022-07-05T06:40:46;27.40;1.00
290;DHT22;13193;48.874;9.086;2022-07-05T06:43:13;27.00;1.00
290;DHT22;13193;48.874;9.086;2022-07-05T06:45:39;26.70;1.00
290;DHT22;13193;48.874;9.086;2022-07-05T06:48:07;26.30;1.00
290;DHT22;13193;48.874;9.086;2022-07-05T06:50:36;25.80;1.00
290;DHT22;13193;48.874;9.086;2022-07-05T06:53:03;25.50;1.00
290;DHT22;13193;48.874;9.086;2022-07-05T06:55:29;25.20;1.00
290;DHT22;13193;48.874;9.086;2022-07-05T06:58:02;24.90;1.00
290;DHT22;13193;48.874;9.086;2022-07-05T07:00:29;24.60;1.00
290;DHT22;13193;48.874;9.086;2022-07-05T07:02:59;24.30;1.00
290;DHT22;13193;48.874;9.086;2022-07-05T07:05:25;24.00;1.00
290;DHT22;13193;48.874;9.086;2022-07-05T07:07:50;23.70;1.00
290;DHT22;13193;48.874;9.086;2022-07-05T07:10:35;23.50;1.00
290;DHT22;13193;48.874;9.086;2022-07-05T07:13:03;23.30;1.00
290;DHT22;13193;48.874;9.086;2022-07-05T07:15:32;23.20;1.00
290;DHT22;13193;48.874;9.086;2022-07-05T07:18:00;23.10;1.00
290;DHT22;13193;48.874;9.086;2022-07-05T07:20:28;22.90;1.00
290;DHT22;13193;48.874;9.086;2022-07-05T07:22:54;22.80;1.00
290;DHT22;13193;48.874;9.086;2022-07-05T07:25:20;22.70;1.00
290;DHT22;13193;48.874;9.086;2022-07-05T07:27:55;22.60;1.00
290;DHT22;13193;48.874;9.086;2022-07-05T07:30:24;22.50;1.00
290;DHT22;13193;48.874;9.086;2022-07-05T07:32:55;22.40;1.00
290;DHT22;13193;48.874;9.086;2022-07-05T07:35:23;22.40;1.00
290;DHT22;13193;48.874;9.086;2022-07-05T07:37:51;22.30;1.00
290;DHT22;13193;48.874;9.086;2022-07-05T07:40:19;22.30;1.00
290;DHT22;13193;48.874;9.086;2022-07-05T07:42:45;22.30;1.00
290;DHT22;13193;48.874;9.086;2022-07-05T07:45:11;22.30;1.00
290;DHT22;13193;48.874;9.086;2022-07-05T07:47:39;22.30;1.00
290;DHT22;13193;48.874;9.086;2022-07-05T07:50:10;22.30;1.00
290;DHT22;13193;48.874;9.086;2022-07-05T07:52:43;22.30;1.00
290;DHT22;13193;48.874;9.086;2022-07-05T07:55:21;22.40;1.00
290;DHT22;13193;48.874;9.086;2022-07-05T07:57:51;22.40;1.00
290;DHT22;13193;48.874;9.086;2022-07-05T08:00:25;22.40;1.00
290;DHT22;13193;48.874;9.086;2022-07-05T08:02:55;22.50;1.00
290;DHT22;13193;48.874;9.086;2022-07-05T08:05:21;22.50;1.00
290;DHT22;13193;48.874;9.086;2022-07-05T08:07:55;22.50;1.00
290;DHT22;13193;48.874;9.086;2022-07-05T08:10:23;22.50;1.00
290;DHT22;13193;48.874;9.086;2022-07-05T08:12:52;22.60;1.00
290;DHT22;13193;48.874;9.086;2022-07-05T08:15:20;22.60;1.00
290;DHT22;13193;48.874;9.086;2022-07-05T08:17:46;22.70;1.00
290;DHT22;13193;48.874;9.086;2022-07-05T08:20:32;22.70;1.00
290;DHT22;13193;48.874;9.086;2022-07-05T08:23:16;22.80;1.00
290;DHT22;13193;48.874;9.086;2022-07-05T08:25:43;22.90;1.00
290;DHT22;13193;48.874;9.086;2022-07-05T08:28:10;23.00;1.00
290;DHT22;13193;48.874;9.086;2022-07-05T08:30:41;23.00;1.00
290;DHT22;13193;48.874;9.086;2022-07-05T08:33:14;23.10;1.00
290;DHT22;13193;48.874;9.086;2022-07-05T08:35:40;23.20;1.00
290;DHT22;13193;48.874;9.086;2022-07-05T08:38:06;23.20;1.00
290;DHT22;13193;48.874;9.086;2022-07-05T08:40:37;23.30;1.00
290;DHT22;13193;48.874;9.086;2022-07-05T08:43:06;23.40;1.00
290;DHT22;13193;48.874;9.086;2022-07-05T08:45:33;23.50;1.00
290;DHT22;13193;48.874;9.086;2022-07-05T08:48:02;23.50;1.00
290;DHT22;13193;48.874;9.086;2022-07-05T08:50:33;23.50;1.00
290;DHT22;13193;48.874;9.086;2022-07-05T08:53:01;23.50;1.00
290;DHT22;13193;48.874;9.086;2022-07-05T08:55:36;23.50;1.00
290;DHT22;13193;48.874;9.086;2022-07-05T08:58:05;23.60;1.00
290;DHT22;13193;48.874;9.086;2022-07-05T09:00:32;23.60;1.00
290;DHT22;13193;48.874;9.086;2022-07-05T09:02:58;23.70;1.00
290;DHT22;13193;48.874;9.086;2022-07-05T09:05:25;23.70;1.00
290;DHT22;13193;48.874;9.086;2022-07-05T09:08:01;23.80;1.00
290;DHT22;13193;48.874;9.086;2022-07-05T09:10:29;23.80;1.00
290;DHT22;13193;48.874;9.086;2022-07-05T09:12:55;23.90;1.00
290;DHT22;13193;48.874;9.086;2022-07-05T09:15:22;24.00;1.00
290;DHT22;13193;48.874;9.086;2022-07-05T09:17:49;24.10;1.00
290;DHT22;13193;48.874;9.086;2022-07-05T09:20:16;24.10;1.00
290;DHT22;13193;48.874;9.086;2022-07-05T09:22:52;24.20;1.00
290;DHT22;13193;48.874;9.086;2022-07-05T09:25:25;24.30;1.00
290;DHT22;13193;48.874;9.086;2022-07-05T09:28:04;24.30;1.00
290;DHT22;13193;48.874;9.086;2022-07-05T09:30:38;24.40;1.00
290;DHT22;13193;48.874;9.086;2022-07-05T09:33:12;24.40;1.00
290;DHT22;13193;48.874;9.086;2022-07-05T09:35:39;24.50;1.00
290;DHT22;13193;48.874;9.086;2022-07-05T09:38:07;24.50;1.00
290;DHT22;13193;48.874;9.086;2022-07-05T09:40:52;24.60;1.00
290;DHT22;13193;48.874;9.086;2022-07-05T09:43:20;24.60;1.00
290;DHT22;13193;48.874;9.086;2022-07-05T09:46:02;24.70;1.00
290;DHT22;13193;48.874;9.086;2022-07-05T09:48:30;24.60;1.00
290;DHT22;13193;48.874;9.086;2022-07-05T09:51:12;24.60;1.00
290;DHT22;13193;48.874;9.086;2022-07-05T09:53:50;24.50;1.00
290;DHT22;13193;48.874;9.086;2022-07-05T09:56:16;24.60;1.00
290;DHT22;13193;48.874;9.086;2022-07-05T09:58:43;24.60;1.00
290;DHT22;13193;48.874;9.086;2022-07-05T10:01:28;24.60;1.00
290;DHT22;13193;48.874;9.086;2022-07-05T10:03:55;24.70;1.00
290;DHT22;13193;48.874;9.086;2022-07-05T10:06:26;24.70;1.00
290;DHT22;13193;48.874;9.086;2022-07-05T10:08:55;24.70;1.00
290;DHT22;13193;48.874;9.086;2022-07-05T10:11:21;24.70;1.00
290;DHT22;13193;48.874;9.086;2022-07-05T10:13:49;24.90;1.00
290;DHT22;13193;48.874;9.086;2022-07-05T10:16:19;25.00;1.00
290;DHT22;13193;48.874;9.086;2022-07-05T10:18:46;25.00;1.00
290;DHT22;13193;48.874;9.086;2022-07-05T10:21:14;25.00;1.00
290;DHT22;13193;48.874;9.086;2022-07-05T10:23:48;25.10;1.00
290;DHT22;13193;48.874;9.086;2022-07-05T10:26:15;25.10;1.00
290;DHT22;13193;48.874;9.086;2022-07-05T10:28:45;25.10;1.00
290;DHT22;13193;48.874;9.086;2022-07-05T10:31:12;25.20;1.00
290;DHT22;13193;48.874;9.086;2022-07-05T10:33:39;25.30;1.00
290;DHT22;13193;48.874;9.086;2022-07-05T10:36:08;25.50;1.00
290;DHT22;13193;48.874;9.086;2022-07-05T10:38:46;25.70;1.00
290;DHT22;13193;48.874;9.086;2022-07-05T10:41:18;25.80;1.00
290;DHT22;13193;48.874;9.086;2022-07-05T10:43:53;25.90;1.00
290;DHT22;13193;48.874;9.086;2022-07-05T10:46:33;25.90;1.00
290;DHT22;13193;48.874;9.086;2022-07-05T10:49:15;26.00;1.00
290;DHT22;13193;48.874;9.086;2022-07-05T10:51:41;26.10;1.00
290;DHT22;13193;48.874;9.086;2022-07-05T10:54:07;26.20;1.00
290;DHT22;13193;48.874;9.086;2022-07-05T10:56:33;26.20;1.00
290;DHT22;13193;48.874;9.086;2022-07-05T10:59:06;26.10;1.00
290;DHT22;13193;48.874;9.086;2022-07-05T11:01:35;26.10;1.00
290;DHT22;13193;48.874;9.086;2022-07-05T11:06:43;26.10;1.00
290;DHT22;13193;48.874;9.086;2022-07-05T11:11:36;26.10;1.00
290;DHT22;13193;48.874;9.086;2022-07-05T11:14:04;26.10;1.00
290;DHT22;13193;48.874;9.086;2022-07-05T11:16:36;26.00;1.00
290;DHT22;13193;48.874;9.086;2022-07-05T11:19:09;26.00;1.00
290;DHT22;13193;48.874;9.086;2022-07-05T11:21:59;26.00;1.00
290;DHT22;13193;48.874;9.086;2022-07-05T11:24:33;26.00;1.00
290;DHT22;13193;48.874;9.086;2022-07-05T11:27:00;25.90;1.00
290;DHT22;13193;48.874;9.086;2022-07-05T11:29:49;25.90;1.00
290;DHT22;13193;48.874;9.086;2022-07-05T11:32:19;25.90;1.00
290;DHT22;13193;48.874;9.086;2022-07-05T11:34:48;25.80;1.00
290;DHT22;13193;48.874;9.086;2022-07-05T11:39:43;25.80;1.00
290;DHT22;13193;48.874;9.086;2022-07-05T11:42:10;25.90;1.00
290;DHT22;13193;48.874;9.086;2022-07-05T11:44:37;25.90;1.00
290;DHT22;13193;48.874;9.086;2022-07-05T11:47:06;25.90;1.00
290;DHT22;13193;48.874;9.086;2022-07-05T11:49:32;25.90;1.00
290;DHT22;13193;48.874;9.086;2022-07-05T11:51:59;25.90;1.00
290;DHT22;13193;48.874;9.086;2022-07-05T11:54:27;25.90;1.00
290;DHT22;13193;48.874;9.086;2022-07-05T11:56:53;26.00;1.00
290;DHT22;13193;48.874;9.086;2022-07-05T11:59:22;26.00;1.00
290;DHT22;13193;48.874;9.086;2022-07-05T12:01:49;26.10;1.00
290;DHT22;13193;48.874;9.086;2022-07-05T12:04:23;26.10;1.00
290;DHT22;13193;48.874;9.086;2022-07-05T12:06:49;26.10;1.00
290;DHT22;13193;48.874;9.086;2022-07-05T12:09:26;26.10;1.00
290;DHT22;13193;48.874;9.086;2022-07-05T12:11:55;26.20;1.00
290;DHT22;13193;48.874;9.086;2022-07-05T12:14:50;26.20;1.00
290;DHT22;13193;48.874;9.086;2022-07-05T12:17:17;26.30;1.00
290;DHT22;13193;48.874;9.086;2022-07-05T12:19:44;26.50;1.00
290;DHT22;13193;48.874;9.086;2022-07-05T12:22:12;26.50;1.00
290;DHT22;13193;48.874;9.086;2022-07-05T12:24:38;26.60;1.00
290;DHT22;13193;48.874;9.086;2022-07-05T12:27:10;26.50;1.00
290;DHT22;13193;48.874;9.086;2022-07-05T12:29:36;26.50;1.00
290;DHT22;13193;48.874;9.086;2022-07-05T12:32:04;26.50;1.00
290;DHT22;13193;48.874;9.086;2022-07-05T12:34:30;26.50;1.00
290;DHT22;13193;48.874;9.086;2022-07-05T12:36:56;26.50;1.00
290;DHT22;13193;48.874;9.086;2022-07-05T12:39:25;26.30;1.00
290;DHT22;13193;48.874;9.086;2022-07-05T12:41:51;26.30;1.00
290;DHT22;13193;48.874;9.086;2022-07-05T12:44:20;26.30;1.00
290;DHT22;13193;48.874;9.086;2022-07-05T12:46:49;26.20;1.00
290;DHT22;13193;48.874;9.086;2022-07-05T12:49:16;26.30;1.00
290;DHT22;13193;48.874;9.086;2022-07-05T12:51:43;26.30;1.00
290;DHT22;13193;48.874;9.086;2022-07-05T12:54:21;26.30;1.00
290;DHT22;13193;48.874;9.086;2022-07-05T12:57:05;26.40;1.00
290;DHT22;13193;48.874;9.086;2022-07-05T13:00:07;26.40;1.00
290;DHT22;13193;48.874;9.086;2022-07-05T13:02:41;26.40;1.00
290;DHT22;13193;48.874;9.086;2022-07-05T13:05:08;26.50;1.00
290;DHT22;13193;48.874;9.086;2022-07-05T13:07:43;26.50;1.00
290;DHT22;13193;48.874;9.086;2022-07-05T13:10:16;26.50;1.00
290;DHT22;13193;48.874;9.086;2022-07-05T13:12:42;26.50;1.00
290;DHT22;13193;48.874;9.086;2022-07-05T13:15:08;26.50;1.00
290;DHT22;13193;48.874;9.086;2022-07-05T13:17:34;26.50;1.00
290;DHT22;13193;48.874;9.086;2022-07-05T13:20:00;26.50;1.00
290;DHT22;13193;48.874;9.086;2022-07-05T13:22:26;26.40;1.00
290;DHT22;13193;48.874;9.086;2022-07-05T13:24:52;26.50;1.00
290;DHT22;13193;48.874;9.086;2022-07-05T13:27:19;26.50;1.00
290;DHT22;13193;48.874;9.086;2022-07-05T13:29:45;26.60;1.00
290;DHT22;13193;48.874;9.086;2022-07-05T13:32:10;26.70;1.00
290;DHT22;13193;48.874;9.086;2022-07-05T13:34:36;26.80;1.00
290;DHT22;13193;48.874;9.086;2022-07-05T13:37:02;26.80;1.00
290;DHT22;13193;48.874;9.086;2022-07-05T13:39:28;26.80;1.00
290;DHT22;13193;48.874;9.086;2022-07-05T13:41:55;26.70;1.00
290;DHT22;13193;48.874;9.086;2022-07-05T13:44:21;26.70;1.00
290;DHT22;13193;48.874;9.086;2022-07-05T13:46:47;26.70;1.00
290;DHT22;13193;48.874;9.086;2022-07-05T13:49:13;26.70;1.00
290;DHT22;13193;48.874;9.086;2022-07-05T13:51:39;26.80;1.00
290;DHT22;13193;48.874;9.086;2022-07-05T13:54:05;26.80;1.00
290;DHT22;13193;48.874;9.086;2022-07-05T13:56:31;26.90;1.00
290;DHT22;13193;48.874;9.086;2022-07-05T13:59:01;26.90;1.00
290;DHT22;13193;48.874;9.086;2022-07-05T14:01:27;26.90;1.00
290;DHT22;13193;48.874;9.086;2022-07-05T14:03:56;26.90;1.00
290;DHT22;13193;48.874;9.086;2022-07-05T14:06:40;27.00;1.00
290;DHT22;13193;48.874;9.086;2022-07-05T14:09:07;27.00;1.00
290;DHT22;13193;48.874;9.086;2022-07-05T14:11:35;27.00;1.00
290;DHT22;13193;48.874;9.086;2022-07-05T14:14:01;27.00;1.00
290;DHT22;13193;48.874;9.086;2022-07-05T14:16:26;27.00;1.00
290;DHT22;13193;48.874;9.086;2022-07-05T14:18:52;27.00;1.00
290;DHT22;13193;48.874;9.086;2022-07-05T14:21:18;26.90;1.00
290;DHT22;13193;48.874;9.086;2022-07-05T14:23:44;26.90;1.00
290;DHT22;13193;48.874;9.086;2022-07-05T14:26:14;26.90;1.00
290;DHT22;13193;48.874;9.086;2022-07-05T14:28:41;27.00;1.00
290;DHT22;13193;48.874;9.086;2022-07-05T14:31:09;27.00;1.00
290;DHT22;13193;48.874;9.086;2022-07-05T14:33:35;27.00;1.00
290;DHT22;13193;48.874;9.086;2022-07-05T14:36:02;27.10;1.00
290;DHT22;13193;48.874;9.086;2022-07-05T14:38:29;27.20;1.00
290;DHT22;13193;48.874;9.086;2022-07-05T14:40:55;27.30;1.00
290;DHT22;13193;48.874;9.086;2022-07-05T14:43:21;27.30;1.00
290;DHT22;13193;48.874;9.086;2022-07-05T14:45:46;27.40;1.00
290;DHT22;13193;48.874;9.086;2022-07-05T14:48:13;27.40;1.00
290;DHT22;13193;48.874;9.086;2022-07-05T14:50:40;27.50;1.00
290;DHT22;13193;48.874;9.086;2022-07-05T14:53:06;27.60;1.00
290;DHT22;13193;48.874;9.086;2022-07-05T14:55:34;27.60;1.00
290;DHT22;13193;48.874;9.086;2022-07-05T14:57:59;27.50;1.00
290;DHT22;13193;48.874;9.086;2022-07-05T15:00:25;27.50;1.00
290;DHT22;13193;48.874;9.086;2022-07-05T15:02:51;27.40;1.00
290;DHT22;13193;48.874;9.086;2022-07-05T15:05:16;27.40;1.00
290;DHT22;13193;48.874;9.086;2022-07-05T15:07:42;27.30;1.00
290;DHT22;13193;48.874;9.086;2022-07-05T15:10:08;27.30;1.00
290;DHT22;13193;48.874;9.086;2022-07-05T15:12:34;27.30;1.00
290;DHT22;13193;48.874;9.086;2022-07-05T15:15:00;27.30;1.00
290;DHT22;13193;48.874;9.086;2022-07-05T15:17:25;27.20;1.00
290;DHT22;13193;48.874;9.086;2022-07-05T15:19:51;27.30;1.00
290;DHT22;13193;48.874;9.086;2022-07-05T15:22:17;27.30;1.00
290;DHT22;13193;48.874;9.086;2022-07-05T15:24:42;27.30;1.00
290;DHT22;13193;48.874;9.086;2022-07-05T15:27:08;27.30;1.00
290;DHT22;13193;48.874;9.086;2022-07-05T15:29:35;27.40;1.00
290;DHT22;13193;48.874;9.086;2022-07-05T15:32:01;27.40;1.00
290;DHT22;13193;48.874;9.086;2022-07-05T15:34:28;27.40;1.00
290;DHT22;13193;48.874;9.086;2022-07-05T15:36:54;27.40;1.00
290;DHT22;13193;48.874;9.086;2022-07-05T15:39:19;27.40;1.00
290;DHT22;13193;48.874;9.086;2022-07-05T15:41:45;27.30;1.00
290;DHT22;13193;48.874;9.086;2022-07-05T15:44:10;27.30;1.00
290;DHT22;13193;48.874;9.086;2022-07-05T15:46:36;27.20;1.00
290;DHT22;13193;48.874;9.086;2022-07-05T15:49:21;27.20;1.00
290;DHT22;13193;48.874;9.086;2022-07-05T15:51:46;27.30;1.00
290;DHT22;13193;48.874;9.086;2022-07-05T15:54:12;27.30;1.00
290;DHT22;13193;48.874;9.086;2022-07-05T15:56:37;27.30;1.00
290;DHT22;13193;48.874;9.086;2022-07-05T15:59:03;27.30;1.00
290;DHT22;13193;48.874;9.086;2022-07-05T16:01:29;27.30;1.00
290;DHT22;13193;48.874;9.086;2022-07-05T16:03:55;27.30;1.00
290;DHT22;13193;48.874;9.086;2022-07-05T16:06:20;27.30;1.00
290;DHT22;13193;48.874;9.086;2022-07-05T16:08:46;27.20;1.00
290;DHT22;13193;48.874;9.086;2022-07-05T16:11:12;27.10;1.00
290;DHT22;13193;48.874;9.086;2022-07-05T16:13:38;27.10;1.00
290;DHT22;13193;48.874;9.086;2022-07-05T16:16:04;27.00;1.00
290;DHT22;13193;48.874;9.086;2022-07-05T16:18:40;27.10;1.00
290;DHT22;13193;48.874;9.086;2022-07-05T16:21:09;27.10;1.00
290;DHT22;13193;48.874;9.086;2022-07-05T16:23:39;27.10;1.00
290;DHT22;13193;48.874;9.086;2022-07-05T16:26:06;27.00;1.00
290;DHT22;13193;48.874;9.086;2022-07-05T16:28:33;27.00;1.00
290;DHT22;13193;48.874;9.086;2022-07-05T16:31:03;27.00;1.00